sensor_id;sensor_type;location;lat;lon;timestamp;P1;durP1;ratioP1;P2;durP2;ratioP2
46463;SDS011;32161;48.148;-1.554;2024-01-11T00:01:49;38.58;;;22.55;;
46463;SDS011;32161;48.148;-1.554;2024-01-11T00:04:18;42.80;;;23.13;;
46463;SDS011;32161;48.148;-1.554;2024-01-11T00:06:45;44.45;;;24.15;;
46463;SDS011;32161;48.148;-1.554;2024-01-11T00:09:13;43.30;;;22.77;;
46463;SDS011;32161;48.148;-1.554;2024-01-11T00:11:40;42.95;;;23.50;;
46463;SDS011;32161;48.148;-1.554;2024-01-11T00:14:08;46.45;;;23.73;;
46463;SDS011;32161;48.148;-1.554;2024-01-11T00:16:35;40.17;;;23.40;;
46463;SDS011;32161;48.148;-1.554;2024-01-11T00:19:03;45.92;;;23.40;;
46463;SDS011;32161;48.148;-1.554;2024-01-11T00:21:32;45.60;;;24.70;;
46463;SDS011;32161;48.148;-1.554;2024-01-11T00:24:00;44.65;;;22.98;;
46463;SDS011;32161;48.148;-1.554;2024-01-11T00:26:27;41.35;;;22.60;;
46463;SDS011;32161;48.148;-1.554;2024-01-11T00:28:55;41.58;;;23.83;;
46463;SDS011;32161;48.148;-1.554;2024-01-11T00:31:22;40.03;;;22.45;;
46463;SDS011;32161;48.148;-1.554;2024-01-11T00:33:50;42.45;;;25.45;;
46463;SDS011;32161;48.148;-1.554;2024-01-11T00:36:17;49.08;;;24.95;;
46463;SDS011;32161;48.148;-1.554;2024-01-11T00:38:47;42.65;;;22.35;;
46463;SDS011;32161;48.148;-1.554;2024-01-11T00:41:15;46.20;;;24.13;;
46463;SDS011;32161;48.148;-1.554;2024-01-11T00:43:43;47.13;;;24.02;;
46463;SDS011;32161;48.148;-1.554;2024-01-11T00:46:10;40.25;;;24.08;;
46463;SDS011;32161;48.148;-1.554;2024-01-11T00:48:38;42.90;;;22.70;;
46463;SDS011;32161;48.148;-1.554;2024-01-11T00:51:06;46.50;;;25.70;;
46463;SDS011;32161;48.148;-1.554;2024-01-11T00:53:33;46.92;;;24.40;;
46463;SDS011;32161;48.148;-1.554;2024-01-11T00:56:02;48.22;;;24.85;;
46463;SDS011;32161;48.148;-1.554;2024-01-11T00:58:30;44.83;;;24.38;;
46463;SDS011;32161;48.148;-1.554;2024-01-11T01:00:58;45.95;;;24.55;;
46463;SDS011;32161;48.148;-1.554;2024-01-11T01:03:26;47.53;;;25.05;;
46463;SDS011;32161;48.148;-1.554;2024-01-11T01:05:53;44.15;;;23.77;;
46463;SDS011;32161;48.148;-1.554;2024-01-11T01:08:21;44.83;;;24.20;;
46463;SDS011;32161;48.148;-1.554;2024-01-11T01:10:48;38.25;;;22.52;;
46463;SDS011;32161;48.148;-1.554;2024-01-11T01:13:17;43.67;;;23.92;;
46463;SDS011;32161;48.148;-1.554;2024-01-11T01:15:45;39.53;;;23.10;;
46463;SDS011;32161;48.148;-1.554;2024-01-11T01:18:13;43.83;;;24.00;;
46463;SDS011;32161;48.148;-1.554;2024-01-11T01:20:41;39.85;;;22.80;;
46463;SDS011;32161;48.148;-1.554;2024-01-11T01:23:08;41.92;;;23.50;;
46463;SDS011;32161;48.148;-1.554;2024-01-11T01:25:36;42.45;;;24.02;;
46463;SDS011;32161;48.148;-1.554;2024-01-11T01:28:04;42.92;;;22.83;;
46463;SDS011;32161;48.148;-1.554;2024-01-11T01:30:33;40.28;;;23.33;;
46463;SDS011;32161;48.148;-1.554;2024-01-11T01:33:00;46.05;;;23.40;;
46463;SDS011;32161;48.148;-1.554;2024-01-11T01:35:28;40.50;;;22.88;;
46463;SDS011;32161;48.148;-1.554;2024-01-11T01:37:56;38.92;;;21.92;;
46463;SDS011;32161;48.148;-1.554;2024-01-11T01:40:23;39.67;;;21.58;;
46463;SDS011;32161;48.148;-1.554;2024-01-11T01:42:57;39.60;;;21.70;;
46463;SDS011;32161;48.148;-1.554;2024-01-11T01:45:25;45.60;;;23.83;;
46463;SDS011;32161;48.148;-1.554;2024-01-11T01:47:55;40.55;;;21.58;;
46463;SDS011;32161;48.148;-1.554;2024-01-11T01:50:23;42.92;;;22.15;;
46463;SDS011;32161;48.148;-1.554;2024-01-11T01:52:51;40.70;;;22.17;;
46463;SDS011;32161;48.148;-1.554;2024-01-11T01:55:20;39.03;;;21.10;;
46463;SDS011;32161;48.148;-1.554;2024-01-11T01:57:48;40.55;;;22.38;;
46463;SDS011;32161;48.148;-1.554;2024-01-11T02:00:17;42.70;;;21.65;;
46463;SDS011;32161;48.148;-1.554;2024-01-11T02:02:45;44.95;;;23.55;;
46463;SDS011;32161;48.148;-1.554;2024-01-11T02:05:17;38.72;;;21.25;;
46463;SDS011;32161;48.148;-1.554;2024-01-11T02:07:45;38.35;;;21.23;;
46463;SDS011;32161;48.148;-1.554;2024-01-11T02:10:13;36.58;;;20.58;;
46463;SDS011;32161;48.148;-1.554;2024-01-11T02:12:41;40.30;;;22.00;;
46463;SDS011;32161;48.148;-1.554;2024-01-11T02:15:09;39.85;;;21.10;;
46463;SDS011;32161;48.148;-1.554;2024-01-11T02:17:37;40.92;;;21.48;;
46463;SDS011;32161;48.148;-1.554;2024-01-11T02:20:07;36.00;;;20.80;;
46463;SDS011;32161;48.148;-1.554;2024-01-11T02:22:38;39.45;;;21.48;;
46463;SDS011;32161;48.148;-1.554;2024-01-11T02:25:11;39.35;;;21.35;;
46463;SDS011;32161;48.148;-1.554;2024-01-11T02:27:46;40.30;;;21.38;;
46463;SDS011;32161;48.148;-1.554;2024-01-11T02:30:14;36.53;;;20.15;;
46463;SDS011;32161;48.148;-1.554;2024-01-11T02:32:43;41.20;;;21.98;;
46463;SDS011;32161;48.148;-1.554;2024-01-11T02:35:13;45.65;;;22.38;;
46463;SDS011;32161;48.148;-1.554;2024-01-11T02:37:42;39.03;;;21.48;;
46463;SDS011;32161;48.148;-1.554;2024-01-11T02:40:13;36.15;;;19.95;;
46463;SDS011;32161;48.148;-1.554;2024-01-11T02:42:41;39.92;;;20.85;;
46463;SDS011;32161;48.148;-1.554;2024-01-11T02:45:08;37.10;;;20.48;;
46463;SDS011;32161;48.148;-1.554;2024-01-11T02:47:37;42.75;;;22.10;;
46463;SDS011;32161;48.148;-1.554;2024-01-11T02:50:05;38.78;;;21.05;;
46463;SDS011;32161;48.148;-1.554;2024-01-11T02:52:33;38.03;;;20.67;;
46463;SDS011;32161;48.148;-1.554;2024-01-11T02:55:01;41.38;;;20.58;;
46463;SDS011;32161;48.148;-1.554;2024-01-11T02:57:30;38.50;;;20.65;;
46463;SDS011;32161;48.148;-1.554;2024-01-11T02:59:58;36.60;;;20.15;;
46463;SDS011;32161;48.148;-1.554;2024-01-11T03:02:25;38.72;;;20.08;;
46463;SDS011;32161;48.148;-1.554;2024-01-11T03:04:53;38.03;;;20.20;;
46463;SDS011;32161;48.148;-1.554;2024-01-11T03:07:20;32.75;;;19.27;;
46463;SDS011;32161;48.148;-1.554;2024-01-11T03:09:48;34.78;;;18.58;;
46463;SDS011;32161;48.148;-1.554;2024-01-11T03:12:15;34.60;;;18.40;;
46463;SDS011;32161;48.148;-1.554;2024-01-11T03:14:44;33.38;;;18.83;;
46463;SDS011;32161;48.148;-1.554;2024-01-11T03:17:12;36.50;;;20.10;;
46463;SDS011;32161;48.148;-1.554;2024-01-11T03:19:39;32.38;;;19.20;;
46463;SDS011;32161;48.148;-1.554;2024-01-11T03:22:07;36.42;;;19.90;;
46463;SDS011;32161;48.148;-1.554;2024-01-11T03:24:37;38.03;;;20.15;;
46463;SDS011;32161;48.148;-1.554;2024-01-11T03:27:05;31.92;;;18.95;;
46463;SDS011;32161;48.148;-1.554;2024-01-11T03:29:32;34.30;;;18.98;;
46463;SDS011;32161;48.148;-1.554;2024-01-11T03:32:01;29.88;;;17.65;;
46463;SDS011;32161;48.148;-1.554;2024-01-11T03:34:29;36.03;;;19.55;;
46463;SDS011;32161;48.148;-1.554;2024-01-11T03:36:57;36.28;;;18.88;;
46463;SDS011;32161;48.148;-1.554;2024-01-11T03:39:24;39.35;;;18.20;;
46463;SDS011;32161;48.148;-1.554;2024-01-11T03:41:52;34.80;;;18.88;;
46463;SDS011;32161;48.148;-1.554;2024-01-11T03:44:20;34.70;;;18.73;;
46463;SDS011;32161;48.148;-1.554;2024-01-11T03:46:47;33.20;;;19.23;;
46463;SDS011;32161;48.148;-1.554;2024-01-11T03:49:17;34.15;;;18.17;;
46463;SDS011;32161;48.148;-1.554;2024-01-11T03:51:45;35.00;;;18.50;;
46463;SDS011;32161;48.148;-1.554;2024-01-11T03:54:12;29.38;;;17.73;;
46463;SDS011;32161;48.148;-1.554;2024-01-11T03:56:40;34.20;;;18.50;;
46463;SDS011;32161;48.148;-1.554;2024-01-11T03:59:07;30.73;;;17.83;;
46463;SDS011;32161;48.148;-1.554;2024-01-11T04:01:39;31.85;;;16.98;;
46463;SDS011;32161;48.148;-1.554;2024-01-11T04:04:07;35.17;;;18.48;;
46463;SDS011;32161;48.148;-1.554;2024-01-11T04:06:36;30.90;;;18.50;;
46463;SDS011;32161;48.148;-1.554;2024-01-11T04:09:04;35.17;;;18.15;;
46463;SDS011;32161;48.148;-1.554;2024-01-11T04:11:31;31.60;;;17.77;;
46463;SDS011;32161;48.148;-1.554;2024-01-11T04:13:59;33.88;;;18.08;;
46463;SDS011;32161;48.148;-1.554;2024-01-11T04:16:26;39.38;;;18.85;;
46463;SDS011;32161;48.148;-1.554;2024-01-11T04:18:54;32.88;;;17.85;;
46463;SDS011;32161;48.148;-1.554;2024-01-11T04:21:22;34.38;;;18.00;;
46463;SDS011;32161;48.148;-1.554;2024-01-11T04:23:52;34.30;;;18.30;;
46463;SDS011;32161;48.148;-1.554;2024-01-11T04:26:20;35.95;;;17.70;;
46463;SDS011;32161;48.148;-1.554;2024-01-11T04:28:48;32.25;;;18.38;;
46463;SDS011;32161;48.148;-1.554;2024-01-11T04:31:17;32.33;;;17.83;;
46463;SDS011;32161;48.148;-1.554;2024-01-11T04:33:45;29.95;;;17.27;;
46463;SDS011;32161;48.148;-1.554;2024-01-11T04:36:13;32.85;;;18.75;;
46463;SDS011;32161;48.148;-1.554;2024-01-11T04:38:40;29.95;;;17.33;;
46463;SDS011;32161;48.148;-1.554;2024-01-11T04:41:11;30.02;;;17.13;;
46463;SDS011;32161;48.148;-1.554;2024-01-11T04:43:40;32.40;;;17.47;;
46463;SDS011;32161;48.148;-1.554;2024-01-11T04:46:12;31.52;;;17.13;;
46463;SDS011;32161;48.148;-1.554;2024-01-11T04:48:42;30.40;;;17.13;;
46463;SDS011;32161;48.148;-1.554;2024-01-11T04:51:10;34.20;;;17.42;;
46463;SDS011;32161;48.148;-1.554;2024-01-11T04:53:39;33.10;;;17.65;;
46463;SDS011;32161;48.148;-1.554;2024-01-11T04:56:07;30.15;;;18.23;;
46463;SDS011;32161;48.148;-1.554;2024-01-11T04:58:38;36.97;;;18.25;;
46463;SDS011;32161;48.148;-1.554;2024-01-11T05:01:10;33.15;;;18.58;;
46463;SDS011;32161;48.148;-1.554;2024-01-11T05:03:39;32.25;;;18.08;;
46463;SDS011;32161;48.148;-1.554;2024-01-11T05:06:06;31.90;;;17.33;;
46463;SDS011;32161;48.148;-1.554;2024-01-11T05:08:34;31.38;;;17.55;;
46463;SDS011;32161;48.148;-1.554;2024-01-11T05:11:01;36.47;;;18.63;;
46463;SDS011;32161;48.148;-1.554;2024-01-11T05:13:31;31.08;;;17.70;;
46463;SDS011;32161;48.148;-1.554;2024-01-11T05:15:58;29.80;;;18.25;;
46463;SDS011;32161;48.148;-1.554;2024-01-11T05:18:26;32.28;;;16.98;;
46463;SDS011;32161;48.148;-1.554;2024-01-11T05:20:53;32.88;;;18.60;;
46463;SDS011;32161;48.148;-1.554;2024-01-11T05:23:21;34.88;;;17.35;;
46463;SDS011;32161;48.148;-1.554;2024-01-11T05:25:48;32.28;;;17.65;;
46463;SDS011;32161;48.148;-1.554;2024-01-11T05:28:16;30.83;;;17.45;;
46463;SDS011;32161;48.148;-1.554;2024-01-11T05:30:45;31.70;;;18.20;;
46463;SDS011;32161;48.148;-1.554;2024-01-11T05:33:12;31.92;;;17.45;;
46463;SDS011;32161;48.148;-1.554;2024-01-11T05:35:40;33.55;;;17.58;;
46463;SDS011;32161;48.148;-1.554;2024-01-11T05:38:07;31.60;;;16.77;;
46463;SDS011;32161;48.148;-1.554;2024-01-11T05:40:35;33.90;;;17.95;;
46463;SDS011;32161;48.148;-1.554;2024-01-11T05:43:03;37.60;;;17.15;;
46463;SDS011;32161;48.148;-1.554;2024-01-11T05:45:30;33.75;;;18.08;;
46463;SDS011;32161;48.148;-1.554;2024-01-11T05:48:00;35.40;;;18.35;;
46463;SDS011;32161;48.148;-1.554;2024-01-11T05:50:28;31.02;;;17.73;;
46463;SDS011;32161;48.148;-1.554;2024-01-11T05:52:56;36.15;;;18.48;;
46463;SDS011;32161;48.148;-1.554;2024-01-11T05:55:35;35.72;;;17.92;;
46463;SDS011;32161;48.148;-1.554;2024-01-11T05:58:16;36.25;;;17.58;;
46463;SDS011;32161;48.148;-1.554;2024-01-11T06:00:45;36.53;;;17.85;;
46463;SDS011;32161;48.148;-1.554;2024-01-11T06:03:14;31.77;;;18.05;;
46463;SDS011;32161;48.148;-1.554;2024-01-11T06:05:42;30.75;;;17.30;;
46463;SDS011;32161;48.148;-1.554;2024-01-11T06:08:09;29.58;;;17.42;;
46463;SDS011;32161;48.148;-1.554;2024-01-11T06:10:37;31.70;;;18.60;;
46463;SDS011;32161;48.148;-1.554;2024-01-11T06:13:06;32.83;;;17.70;;
46463;SDS011;32161;48.148;-1.554;2024-01-11T06:15:34;30.42;;;16.92;;
46463;SDS011;32161;48.148;-1.554;2024-01-11T06:18:02;34.47;;;18.10;;
46463;SDS011;32161;48.148;-1.554;2024-01-11T06:20:32;33.05;;;19.35;;
46463;SDS011;32161;48.148;-1.554;2024-01-11T06:23:00;32.47;;;18.20;;
46463;SDS011;32161;48.148;-1.554;2024-01-11T06:25:29;29.02;;;16.63;;
46463;SDS011;32161;48.148;-1.554;2024-01-11T06:27:57;36.78;;;17.38;;
46463;SDS011;32161;48.148;-1.554;2024-01-11T06:30:27;32.08;;;18.23;;
46463;SDS011;32161;48.148;-1.554;2024-01-11T06:32:56;33.13;;;18.35;;
46463;SDS011;32161;48.148;-1.554;2024-01-11T06:35:23;33.53;;;17.25;;
46463;SDS011;32161;48.148;-1.554;2024-01-11T06:37:52;33.80;;;18.88;;
46463;SDS011;32161;48.148;-1.554;2024-01-11T06:40:20;33.40;;;18.45;;
46463;SDS011;32161;48.148;-1.554;2024-01-11T06:42:47;32.75;;;18.00;;
46463;SDS011;32161;48.148;-1.554;2024-01-11T06:45:15;31.77;;;17.00;;
46463;SDS011;32161;48.148;-1.554;2024-01-11T06:47:44;35.80;;;18.60;;
46463;SDS011;32161;48.148;-1.554;2024-01-11T06:50:12;34.95;;;18.55;;
46463;SDS011;32161;48.148;-1.554;2024-01-11T06:52:40;31.38;;;18.23;;
46463;SDS011;32161;48.148;-1.554;2024-01-11T06:55:09;34.85;;;19.80;;
46463;SDS011;32161;48.148;-1.554;2024-01-11T06:57:37;33.45;;;17.75;;
46463;SDS011;32161;48.148;-1.554;2024-01-11T07:00:05;36.53;;;18.33;;
46463;SDS011;32161;48.148;-1.554;2024-01-11T07:02:34;35.42;;;18.20;;
46463;SDS011;32161;48.148;-1.554;2024-01-11T07:05:02;35.85;;;18.45;;
46463;SDS011;32161;48.148;-1.554;2024-01-11T07:07:30;34.05;;;18.83;;
46463;SDS011;32161;48.148;-1.554;2024-01-11T07:09:58;32.90;;;18.45;;
46463;SDS011;32161;48.148;-1.554;2024-01-11T07:12:27;36.90;;;19.27;;
46463;SDS011;32161;48.148;-1.554;2024-01-11T07:14:54;38.58;;;18.58;;
46463;SDS011;32161;48.148;-1.554;2024-01-11T07:17:22;32.47;;;18.33;;
46463;SDS011;32161;48.148;-1.554;2024-01-11T07:19:50;39.17;;;17.27;;
46463;SDS011;32161;48.148;-1.554;2024-01-11T07:22:18;37.50;;;18.83;;
46463;SDS011;32161;48.148;-1.554;2024-01-11T07:24:45;31.90;;;17.98;;
46463;SDS011;32161;48.148;-1.554;2024-01-11T07:27:13;34.80;;;18.73;;
46463;SDS011;32161;48.148;-1.554;2024-01-11T07:29:42;32.08;;;19.17;;
46463;SDS011;32161;48.148;-1.554;2024-01-11T07:32:09;31.05;;;18.20;;
46463;SDS011;32161;48.148;-1.554;2024-01-11T07:34:37;35.03;;;18.83;;
46463;SDS011;32161;48.148;-1.554;2024-01-11T07:37:04;28.27;;;17.25;;
46463;SDS011;32161;48.148;-1.554;2024-01-11T07:39:33;30.95;;;17.40;;
46463;SDS011;32161;48.148;-1.554;2024-01-11T07:42:01;38.75;;;19.00;;
46463;SDS011;32161;48.148;-1.554;2024-01-11T07:44:29;36.55;;;20.33;;
46463;SDS011;32161;48.148;-1.554;2024-01-11T07:46:58;34.85;;;19.10;;
46463;SDS011;32161;48.148;-1.554;2024-01-11T07:49:26;31.88;;;18.65;;
46463;SDS011;32161;48.148;-1.554;2024-01-11T07:51:54;35.85;;;18.33;;
46463;SDS011;32161;48.148;-1.554;2024-01-11T07:54:21;34.45;;;19.20;;
46463;SDS011;32161;48.148;-1.554;2024-01-11T07:56:49;34.72;;;18.67;;
46463;SDS011;32161;48.148;-1.554;2024-01-11T07:59:16;36.45;;;18.13;;
46463;SDS011;32161;48.148;-1.554;2024-01-11T08:01:44;30.25;;;18.48;;
46463;SDS011;32161;48.148;-1.554;2024-01-11T08:04:14;33.65;;;18.52;;
46463;SDS011;32161;48.148;-1.554;2024-01-11T08:06:42;33.92;;;18.40;;
46463;SDS011;32161;48.148;-1.554;2024-01-11T08:09:10;35.15;;;19.08;;
46463;SDS011;32161;48.148;-1.554;2024-01-11T08:11:38;34.60;;;19.25;;
46463;SDS011;32161;48.148;-1.554;2024-01-11T08:14:06;29.00;;;16.85;;
46463;SDS011;32161;48.148;-1.554;2024-01-11T08:16:34;33.92;;;18.60;;
46463;SDS011;32161;48.148;-1.554;2024-01-11T08:19:01;32.55;;;18.05;;
46463;SDS011;32161;48.148;-1.554;2024-01-11T08:21:30;33.60;;;17.77;;
46463;SDS011;32161;48.148;-1.554;2024-01-11T08:23:58;33.42;;;18.70;;
46463;SDS011;32161;48.148;-1.554;2024-01-11T08:26:27;32.97;;;18.70;;
46463;SDS011;32161;48.148;-1.554;2024-01-11T08:28:56;32.08;;;18.70;;
46463;SDS011;32161;48.148;-1.554;2024-01-11T08:31:23;33.00;;;18.75;;
46463;SDS011;32161;48.148;-1.554;2024-01-11T08:33:51;34.22;;;18.63;;
46463;SDS011;32161;48.148;-1.554;2024-01-11T08:36:19;33.28;;;19.45;;
46463;SDS011;32161;48.148;-1.554;2024-01-11T08:38:48;36.83;;;19.38;;
46463;SDS011;32161;48.148;-1.554;2024-01-11T08:41:16;34.35;;;19.40;;
46463;SDS011;32161;48.148;-1.554;2024-01-11T08:43:44;32.58;;;18.98;;
46463;SDS011;32161;48.148;-1.554;2024-01-11T08:46:11;32.35;;;19.42;;
46463;SDS011;32161;48.148;-1.554;2024-01-11T08:48:49;31.20;;;17.90;;
46463;SDS011;32161;48.148;-1.554;2024-01-11T08:51:16;34.45;;;18.75;;
46463;SDS011;32161;48.148;-1.554;2024-01-11T08:53:44;33.13;;;18.92;;
46463;SDS011;32161;48.148;-1.554;2024-01-11T08:56:13;33.78;;;19.55;;
46463;SDS011;32161;48.148;-1.554;2024-01-11T08:58:42;33.10;;;19.48;;
46463;SDS011;32161;48.148;-1.554;2024-01-11T09:01:11;31.58;;;18.92;;
46463;SDS011;32161;48.148;-1.554;2024-01-11T09:03:38;31.77;;;18.77;;
46463;SDS011;32161;48.148;-1.554;2024-01-11T09:06:06;34.63;;;19.55;;
46463;SDS011;32161;48.148;-1.554;2024-01-11T09:08:34;39.72;;;20.80;;
46463;SDS011;32161;48.148;-1.554;2024-01-11T09:11:01;35.00;;;19.65;;
46463;SDS011;32161;48.148;-1.554;2024-01-11T09:13:30;34.85;;;19.60;;
46463;SDS011;32161;48.148;-1.554;2024-01-11T09:15:58;35.35;;;18.45;;
46463;SDS011;32161;48.148;-1.554;2024-01-11T09:18:25;35.45;;;19.58;;
46463;SDS011;32161;48.148;-1.554;2024-01-11T09:20:53;34.67;;;19.60;;
46463;SDS011;32161;48.148;-1.554;2024-01-11T09:23:21;39.45;;;20.70;;
46463;SDS011;32161;48.148;-1.554;2024-01-11T09:25:49;39.03;;;19.67;;
46463;SDS011;32161;48.148;-1.554;2024-01-11T09:28:16;36.83;;;19.70;;
46463;SDS011;32161;48.148;-1.554;2024-01-11T09:30:45;36.35;;;19.50;;
46463;SDS011;32161;48.148;-1.554;2024-01-11T09:33:13;35.83;;;20.27;;
46463;SDS011;32161;48.148;-1.554;2024-01-11T09:35:40;38.88;;;20.30;;
46463;SDS011;32161;48.148;-1.554;2024-01-11T09:38:08;35.95;;;19.98;;
46463;SDS011;32161;48.148;-1.554;2024-01-11T09:40:36;33.85;;;18.75;;
46463;SDS011;32161;48.148;-1.554;2024-01-11T09:43:04;37.25;;;19.92;;
46463;SDS011;32161;48.148;-1.554;2024-01-11T09:45:33;37.08;;;20.73;;
46463;SDS011;32161;48.148;-1.554;2024-01-11T09:48:02;41.40;;;21.67;;
46463;SDS011;32161;48.148;-1.554;2024-01-11T09:50:32;38.55;;;20.52;;
46463;SDS011;32161;48.148;-1.554;2024-01-11T09:53:00;40.50;;;20.20;;
46463;SDS011;32161;48.148;-1.554;2024-01-11T09:55:30;37.80;;;20.55;;
46463;SDS011;32161;48.148;-1.554;2024-01-11T09:57:58;32.85;;;18.83;;
46463;SDS011;32161;48.148;-1.554;2024-01-11T10:00:27;39.08;;;21.35;;
46463;SDS011;32161;48.148;-1.554;2024-01-11T10:02:55;39.70;;;20.80;;
46463;SDS011;32161;48.148;-1.554;2024-01-11T10:05:24;37.22;;;20.05;;
46463;SDS011;32161;48.148;-1.554;2024-01-11T10:07:53;37.42;;;21.15;;
46463;SDS011;32161;48.148;-1.554;2024-01-11T10:10:21;40.08;;;20.58;;
46463;SDS011;32161;48.148;-1.554;2024-01-11T10:12:48;34.97;;;20.52;;
46463;SDS011;32161;48.148;-1.554;2024-01-11T10:15:16;38.05;;;21.08;;
46463;SDS011;32161;48.148;-1.554;2024-01-11T10:17:44;37.50;;;20.65;;
46463;SDS011;32161;48.148;-1.554;2024-01-11T10:20:13;42.13;;;21.17;;
46463;SDS011;32161;48.148;-1.554;2024-01-11T10:22:43;39.90;;;22.45;;
46463;SDS011;32161;48.148;-1.554;2024-01-11T10:25:13;37.17;;;20.35;;
46463;SDS011;32161;48.148;-1.554;2024-01-11T10:27:44;39.22;;;20.20;;
46463;SDS011;32161;48.148;-1.554;2024-01-11T10:30:12;38.95;;;22.13;;
46463;SDS011;32161;48.148;-1.554;2024-01-11T10:32:43;35.58;;;20.55;;
46463;SDS011;32161;48.148;-1.554;2024-01-11T10:35:11;38.88;;;21.02;;
46463;SDS011;32161;48.148;-1.554;2024-01-11T10:37:39;38.45;;;20.00;;
46463;SDS011;32161;48.148;-1.554;2024-01-11T10:40:08;37.95;;;20.70;;
46463;SDS011;32161;48.148;-1.554;2024-01-11T10:42:39;35.10;;;20.10;;
46463;SDS011;32161;48.148;-1.554;2024-01-11T10:45:11;34.95;;;19.77;;
46463;SDS011;32161;48.148;-1.554;2024-01-11T10:47:45;37.00;;;20.10;;
46463;SDS011;32161;48.148;-1.554;2024-01-11T10:50:20;37.08;;;19.98;;
46463;SDS011;32161;48.148;-1.554;2024-01-11T10:52:53;38.55;;;20.58;;
46463;SDS011;32161;48.148;-1.554;2024-01-11T10:55:32;37.92;;;20.45;;
46463;SDS011;32161;48.148;-1.554;2024-01-11T10:58:01;38.55;;;20.50;;
46463;SDS011;32161;48.148;-1.554;2024-01-11T11:00:30;35.08;;;19.67;;
46463;SDS011;32161;48.148;-1.554;2024-01-11T11:02:59;30.92;;;18.52;;
46463;SDS011;32161;48.148;-1.554;2024-01-11T11:05:27;34.00;;;18.13;;
46463;SDS011;32161;48.148;-1.554;2024-01-11T11:07:56;33.40;;;18.90;;
46463;SDS011;32161;48.148;-1.554;2024-01-11T11:10:24;30.83;;;18.42;;
46463;SDS011;32161;48.148;-1.554;2024-01-11T11:12:54;32.22;;;19.10;;
46463;SDS011;32161;48.148;-1.554;2024-01-11T11:15:25;33.60;;;18.63;;
46463;SDS011;32161;48.148;-1.554;2024-01-11T11:17:54;35.08;;;20.27;;
46463;SDS011;32161;48.148;-1.554;2024-01-11T11:20:22;34.30;;;19.10;;
46463;SDS011;32161;48.148;-1.554;2024-01-11T11:23:02;32.70;;;18.77;;
46463;SDS011;32161;48.148;-1.554;2024-01-11T11:25:31;36.13;;;19.48;;
46463;SDS011;32161;48.148;-1.554;2024-01-11T11:27:59;34.78;;;19.20;;
46463;SDS011;32161;48.148;-1.554;2024-01-11T11:30:29;33.70;;;19.25;;
46463;SDS011;32161;48.148;-1.554;2024-01-11T11:32:57;32.30;;;18.70;;
46463;SDS011;32161;48.148;-1.554;2024-01-11T11:35:25;33.40;;;18.73;;
46463;SDS011;32161;48.148;-1.554;2024-01-11T11:37:53;29.52;;;17.65;;
46463;SDS011;32161;48.148;-1.554;2024-01-11T11:40:31;36.45;;;19.70;;
46463;SDS011;32161;48.148;-1.554;2024-01-11T11:43:05;31.92;;;17.42;;
46463;SDS011;32161;48.148;-1.554;2024-01-11T11:45:33;28.17;;;16.30;;
46463;SDS011;32161;48.148;-1.554;2024-01-11T11:48:01;26.10;;;15.73;;
46463;SDS011;32161;48.148;-1.554;2024-01-11T11:51:00;27.50;;;16.52;;
46463;SDS011;32161;48.148;-1.554;2024-01-11T11:53:30;29.13;;;16.27;;
46463;SDS011;32161;48.148;-1.554;2024-01-11T11:55:59;29.20;;;16.65;;
46463;SDS011;32161;48.148;-1.554;2024-01-11T11:58:29;37.13;;;17.05;;
46463;SDS011;32161;48.148;-1.554;2024-01-11T12:03:28;26.70;;;15.35;;
46463;SDS011;32161;48.148;-1.554;2024-01-11T12:05:58;24.60;;;14.98;;
46463;SDS011;32161;48.148;-1.554;2024-01-11T12:08:27;28.02;;;16.40;;
46463;SDS011;32161;48.148;-1.554;2024-01-11T12:10:54;26.17;;;16.33;;
46463;SDS011;32161;48.148;-1.554;2024-01-11T12:13:22;26.00;;;16.27;;
46463;SDS011;32161;48.148;-1.554;2024-01-11T12:15:52;26.73;;;15.70;;
46463;SDS011;32161;48.148;-1.554;2024-01-11T12:18:20;33.47;;;15.93;;
46463;SDS011;32161;48.148;-1.554;2024-01-11T12:20:48;27.20;;;15.13;;
46463;SDS011;32161;48.148;-1.554;2024-01-11T12:23:16;27.27;;;16.70;;
46463;SDS011;32161;48.148;-1.554;2024-01-11T12:25:43;23.52;;;14.75;;
46463;SDS011;32161;48.148;-1.554;2024-01-11T12:28:11;25.58;;;15.30;;
46463;SDS011;32161;48.148;-1.554;2024-01-11T12:30:39;24.90;;;15.80;;
46463;SDS011;32161;48.148;-1.554;2024-01-11T12:33:08;26.20;;;15.73;;
46463;SDS011;32161;48.148;-1.554;2024-01-11T12:35:36;26.45;;;16.00;;
46463;SDS011;32161;48.148;-1.554;2024-01-11T12:38:05;23.13;;;15.25;;
46463;SDS011;32161;48.148;-1.554;2024-01-11T12:40:34;24.52;;;15.57;;
46463;SDS011;32161;48.148;-1.554;2024-01-11T12:43:03;23.00;;;14.98;;
46463;SDS011;32161;48.148;-1.554;2024-01-11T12:45:32;24.85;;;14.95;;
46463;SDS011;32161;48.148;-1.554;2024-01-11T12:48:01;31.15;;;16.88;;
46463;SDS011;32161;48.148;-1.554;2024-01-11T12:50:33;24.30;;;15.65;;
46463;SDS011;32161;48.148;-1.554;2024-01-11T12:53:05;26.17;;;14.93;;
46463;SDS011;32161;48.148;-1.554;2024-01-11T12:55:37;27.23;;;16.45;;
46463;SDS011;32161;48.148;-1.554;2024-01-11T12:58:06;26.20;;;15.70;;
46463;SDS011;32161;48.148;-1.554;2024-01-11T13:00:35;27.58;;;15.05;;
46463;SDS011;32161;48.148;-1.554;2024-01-11T13:03:03;24.95;;;14.82;;
46463;SDS011;32161;48.148;-1.554;2024-01-11T13:05:33;25.52;;;15.65;;
46463;SDS011;32161;48.148;-1.554;2024-01-11T13:08:03;27.83;;;15.75;;
46463;SDS011;32161;48.148;-1.554;2024-01-11T13:10:35;26.88;;;15.50;;
46463;SDS011;32161;48.148;-1.554;2024-01-11T13:13:03;27.48;;;15.75;;
46463;SDS011;32161;48.148;-1.554;2024-01-11T13:15:33;24.00;;;14.82;;
46463;SDS011;32161;48.148;-1.554;2024-01-11T13:18:01;26.05;;;16.52;;
46463;SDS011;32161;48.148;-1.554;2024-01-11T13:20:29;25.17;;;15.85;;
46463;SDS011;32161;48.148;-1.554;2024-01-11T13:25:45;24.80;;;15.10;;
46463;SDS011;32161;48.148;-1.554;2024-01-11T13:28:14;26.73;;;15.23;;
46463;SDS011;32161;48.148;-1.554;2024-01-11T13:30:44;23.42;;;14.15;;
46463;SDS011;32161;48.148;-1.554;2024-01-11T13:33:14;23.38;;;14.98;;
46463;SDS011;32161;48.148;-1.554;2024-01-11T13:35:42;22.60;;;13.70;;
46463;SDS011;32161;48.148;-1.554;2024-01-11T13:38:11;23.23;;;14.18;;
46463;SDS011;32161;48.148;-1.554;2024-01-11T13:40:40;20.08;;;13.45;;
46463;SDS011;32161;48.148;-1.554;2024-01-11T13:43:08;21.73;;;14.57;;
46463;SDS011;32161;48.148;-1.554;2024-01-11T13:45:36;19.58;;;13.82;;
46463;SDS011;32161;48.148;-1.554;2024-01-11T13:48:04;21.33;;;13.90;;
46463;SDS011;32161;48.148;-1.554;2024-01-11T13:50:32;21.00;;;12.85;;
46463;SDS011;32161;48.148;-1.554;2024-01-11T13:53:00;19.05;;;12.50;;
46463;SDS011;32161;48.148;-1.554;2024-01-11T13:55:28;17.70;;;11.88;;
46463;SDS011;32161;48.148;-1.554;2024-01-11T13:58:04;16.38;;;11.65;;
46463;SDS011;32161;48.148;-1.554;2024-01-11T14:00:31;17.45;;;11.45;;
46463;SDS011;32161;48.148;-1.554;2024-01-11T14:02:59;15.48;;;10.38;;
46463;SDS011;32161;48.148;-1.554;2024-01-11T14:05:28;18.17;;;10.80;;
46463;SDS011;32161;48.148;-1.554;2024-01-11T14:07:56;15.32;;;10.75;;
46463;SDS011;32161;48.148;-1.554;2024-01-11T14:10:24;13.55;;;10.27;;
46463;SDS011;32161;48.148;-1.554;2024-01-11T14:12:52;17.27;;;11.48;;
46463;SDS011;32161;48.148;-1.554;2024-01-11T14:15:21;17.75;;;10.75;;
46463;SDS011;32161;48.148;-1.554;2024-01-11T14:17:50;18.15;;;11.35;;
46463;SDS011;32161;48.148;-1.554;2024-01-11T14:20:18;17.83;;;11.88;;
46463;SDS011;32161;48.148;-1.554;2024-01-11T14:22:46;16.83;;;11.60;;